Ontonagon, Michigan
Current Conditions -  °F | °C
As of 5:56 PM on Thursday 20 Nov 2014 (Local Time) from KCMX Reporting Station
Light Snow Light Snow  
Wind Chill: -4°   Ceiling: 1800
Heat Index: 10°   Visibility: 3mi
Dew Point:   Wind: 10mph
Humidity: 76%   Direction: 300°WNW
Pressure: 29.97"   Gusts: NA
Location:  46.87°N, 89.31°W
Report Text: KCMX 202256Z AUTO 30009KT 3SM -SN BKN018 OVC038 M12/M16 A2997 RMK AO2 P0000 T11221156
Loading
Personal Weather Stations






























Interactive Weather Map New forecast layout! Learn more

10-Day Weather Forecast

Advertisements
Track Severe Weather on mobile